Terminal Aerodrome Forecast
Issued by NWS

Home | Current Version | Previous Version | Text Only | Print | Product List | Glossary On
Versions: 1 2 3 4 5 6 7 8 9 10 11 12 13 14 15 16 17
000
FTUS44 KBMX 262341
TAFANB
TAF
KANB 262341Z 2700/2724 01005KT P6SM SKC
     FM270800 00000KT 3SM BR FEW150
     FM271300 06003KT P6SM FEW150=

USA.gov is the U.S. government's official web portal to all federal, state and local government web resources and services.